sensor_id;sensor_type;location;lat;lon;timestamp;P1;durP1;ratioP1;P2;durP2;ratioP2
51792;SDS011;37850;53.178;6.376;2023-04-15T00:00:06;8.95;;;3.60;;
51792;SDS011;37850;53.178;6.376;2023-04-15T00:02:34;8.55;;;3.55;;
51792;SDS011;37850;53.178;6.376;2023-04-15T00:05:00;9.98;;;4.03;;
51792;SDS011;37850;53.178;6.376;2023-04-15T00:07:25;9.07;;;3.60;;
51792;SDS011;37850;53.178;6.376;2023-04-15T00:09:51;11.93;;;4.03;;
51792;SDS011;37850;53.178;6.376;2023-04-15T00:12:19;10.70;;;4.05;;
51792;SDS011;37850;53.178;6.376;2023-04-15T00:14:46;10.40;;;4.05;;
51792;SDS011;37850;53.178;6.376;2023-04-15T00:17:11;11.02;;;3.60;;
51792;SDS011;37850;53.178;6.376;2023-04-15T00:19:38;9.48;;;3.72;;
51792;SDS011;37850;53.178;6.376;2023-04-15T00:22:04;12.73;;;3.65;;
51792;SDS011;37850;53.178;6.376;2023-04-15T00:24:31;7.45;;;3.65;;
51792;SDS011;37850;53.178;6.376;2023-04-15T00:26:57;12.70;;;4.15;;
51792;SDS011;37850;53.178;6.376;2023-04-15T00:29:24;11.88;;;4.18;;
51792;SDS011;37850;53.178;6.376;2023-04-15T00:31:50;12.77;;;4.38;;
51792;SDS011;37850;53.178;6.376;2023-04-15T00:34:16;10.45;;;4.68;;
51792;SDS011;37850;53.178;6.376;2023-04-15T00:36:41;11.10;;;4.90;;
51792;SDS011;37850;53.178;6.376;2023-04-15T00:39:07;13.00;;;4.55;;
51792;SDS011;37850;53.178;6.376;2023-04-15T00:41:33;10.10;;;4.20;;
51792;SDS011;37850;53.178;6.376;2023-04-15T00:44:00;10.23;;;4.55;;
51792;SDS011;37850;53.178;6.376;2023-04-15T00:46:27;12.15;;;4.75;;
51792;SDS011;37850;53.178;6.376;2023-04-15T00:48:55;11.10;;;4.50;;
51792;SDS011;37850;53.178;6.376;2023-04-15T00:51:21;10.20;;;3.90;;
51792;SDS011;37850;53.178;6.376;2023-04-15T00:53:47;12.82;;;4.45;;
51792;SDS011;37850;53.178;6.376;2023-04-15T00:56:13;13.43;;;4.38;;
51792;SDS011;37850;53.178;6.376;2023-04-15T00:58:38;11.57;;;3.95;;
51792;SDS011;37850;53.178;6.376;2023-04-15T01:01:04;10.27;;;4.72;;
51792;SDS011;37850;53.178;6.376;2023-04-15T01:03:30;10.77;;;4.72;;
51792;SDS011;37850;53.178;6.376;2023-04-15T01:05:59;13.20;;;4.50;;
51792;SDS011;37850;53.178;6.376;2023-04-15T01:08:28;11.13;;;4.38;;
51792;SDS011;37850;53.178;6.376;2023-04-15T01:10:57;10.15;;;5.05;;
51792;SDS011;37850;53.178;6.376;2023-04-15T01:13:29;12.30;;;5.32;;
51792;SDS011;37850;53.178;6.376;2023-04-15T01:15:55;11.88;;;5.13;;
51792;SDS011;37850;53.178;6.376;2023-04-15T01:18:21;13.27;;;5.78;;
51792;SDS011;37850;53.178;6.376;2023-04-15T01:20:48;10.80;;;5.70;;
51792;SDS011;37850;53.178;6.376;2023-04-15T01:23:14;10.32;;;5.10;;
51792;SDS011;37850;53.178;6.376;2023-04-15T01:25:41;11.45;;;5.22;;
51792;SDS011;37850;53.178;6.376;2023-04-15T01:28:08;14.07;;;5.53;;
51792;SDS011;37850;53.178;6.376;2023-04-15T01:30:35;9.40;;;5.05;;
51792;SDS011;37850;53.178;6.376;2023-04-15T01:33:00;11.45;;;5.05;;
51792;SDS011;37850;53.178;6.376;2023-04-15T01:35:27;12.30;;;5.50;;
51792;SDS011;37850;53.178;6.376;2023-04-15T01:37:53;10.98;;;5.53;;
51792;SDS011;37850;53.178;6.376;2023-04-15T01:40:28;12.18;;;5.43;;
51792;SDS011;37850;53.178;6.376;2023-04-15T01:42:54;11.32;;;5.10;;
51792;SDS011;37850;53.178;6.376;2023-04-15T01:45:20;11.45;;;5.90;;
51792;SDS011;37850;53.178;6.376;2023-04-15T01:47:46;10.48;;;5.30;;
51792;SDS011;37850;53.178;6.376;2023-04-15T01:50:13;11.50;;;5.35;;
51792;SDS011;37850;53.178;6.376;2023-04-15T01:52:39;10.38;;;5.18;;
51792;SDS011;37850;53.178;6.376;2023-04-15T01:55:05;11.68;;;5.80;;
51792;SDS011;37850;53.178;6.376;2023-04-15T01:57:32;13.57;;;5.90;;
51792;SDS011;37850;53.178;6.376;2023-04-15T01:59:58;12.40;;;5.72;;
51792;SDS011;37850;53.178;6.376;2023-04-15T02:02:24;13.38;;;5.78;;
51792;SDS011;37850;53.178;6.376;2023-04-15T02:04:50;14.05;;;5.85;;
51792;SDS011;37850;53.178;6.376;2023-04-15T02:07:15;12.38;;;6.10;;
51792;SDS011;37850;53.178;6.376;2023-04-15T02:09:41;14.18;;;6.22;;
51792;SDS011;37850;53.178;6.376;2023-04-15T02:12:08;11.98;;;5.80;;
51792;SDS011;37850;53.178;6.376;2023-04-15T02:14:33;10.98;;;6.07;;
51792;SDS011;37850;53.178;6.376;2023-04-15T02:16:59;14.38;;;6.10;;
51792;SDS011;37850;53.178;6.376;2023-04-15T02:19:33;11.95;;;6.07;;
51792;SDS011;37850;53.178;6.376;2023-04-15T02:22:00;12.45;;;6.15;;
51792;SDS011;37850;53.178;6.376;2023-04-15T02:24:26;12.55;;;6.18;;
51792;SDS011;37850;53.178;6.376;2023-04-15T02:26:52;13.65;;;6.47;;
51792;SDS011;37850;53.178;6.376;2023-04-15T02:29:18;10.05;;;5.72;;
51792;SDS011;37850;53.178;6.376;2023-04-15T02:31:43;11.68;;;6.50;;
51792;SDS011;37850;53.178;6.376;2023-04-15T02:34:09;16.13;;;6.38;;
51792;SDS011;37850;53.178;6.376;2023-04-15T02:36:35;13.25;;;6.22;;
51792;SDS011;37850;53.178;6.376;2023-04-15T02:39:04;11.30;;;5.43;;
51792;SDS011;37850;53.178;6.376;2023-04-15T02:41:30;11.38;;;5.35;;
51792;SDS011;37850;53.178;6.376;2023-04-15T02:43:56;10.13;;;5.68;;
51792;SDS011;37850;53.178;6.376;2023-04-15T02:46:21;13.82;;;6.47;;
51792;SDS011;37850;53.178;6.376;2023-04-15T02:48:50;12.52;;;6.80;;
51792;SDS011;37850;53.178;6.376;2023-04-15T02:51:18;13.45;;;6.25;;
51792;SDS011;37850;53.178;6.376;2023-04-15T02:53:46;12.10;;;6.43;;
51792;SDS011;37850;53.178;6.376;2023-04-15T02:56:13;13.48;;;6.43;;
51792;SDS011;37850;53.178;6.376;2023-04-15T02:58:40;14.02;;;6.70;;
51792;SDS011;37850;53.178;6.376;2023-04-15T03:01:06;10.23;;;5.95;;
51792;SDS011;37850;53.178;6.376;2023-04-15T03:03:33;12.77;;;6.88;;
51792;SDS011;37850;53.178;6.376;2023-04-15T03:05:59;12.25;;;6.47;;
51792;SDS011;37850;53.178;6.376;2023-04-15T03:08:25;12.05;;;6.75;;
51792;SDS011;37850;53.178;6.376;2023-04-15T03:10:51;11.45;;;6.22;;
51792;SDS011;37850;53.178;6.376;2023-04-15T03:13:17;11.70;;;6.25;;
51792;SDS011;37850;53.178;6.376;2023-04-15T03:15:46;15.30;;;7.38;;
51792;SDS011;37850;53.178;6.376;2023-04-15T03:18:12;15.77;;;8.38;;
51792;SDS011;37850;53.178;6.376;2023-04-15T03:20:38;17.73;;;9.48;;
51792;SDS011;37850;53.178;6.376;2023-04-15T03:23:03;19.60;;;8.43;;
51792;SDS011;37850;53.178;6.376;2023-04-15T03:25:29;15.80;;;7.85;;
51792;SDS011;37850;53.178;6.376;2023-04-15T03:27:55;13.57;;;7.82;;
51792;SDS011;37850;53.178;6.376;2023-04-15T03:30:21;14.85;;;8.48;;
51792;SDS011;37850;53.178;6.376;2023-04-15T03:32:46;18.38;;;8.48;;
51792;SDS011;37850;53.178;6.376;2023-04-15T03:35:12;15.10;;;8.23;;
51792;SDS011;37850;53.178;6.376;2023-04-15T03:37:38;14.02;;;8.60;;
51792;SDS011;37850;53.178;6.376;2023-04-15T03:40:04;15.52;;;8.25;;
51792;SDS011;37850;53.178;6.376;2023-04-15T03:42:30;14.77;;;8.30;;
51792;SDS011;37850;53.178;6.376;2023-04-15T03:44:55;14.93;;;8.57;;
51792;SDS011;37850;53.178;6.376;2023-04-15T03:47:21;18.88;;;8.90;;
51792;SDS011;37850;53.178;6.376;2023-04-15T03:49:47;13.50;;;8.13;;
51792;SDS011;37850;53.178;6.376;2023-04-15T03:52:12;15.73;;;9.05;;
51792;SDS011;37850;53.178;6.376;2023-04-15T03:54:38;15.15;;;8.30;;
51792;SDS011;37850;53.178;6.376;2023-04-15T03:57:04;16.30;;;8.85;;
51792;SDS011;37850;53.178;6.376;2023-04-15T03:59:29;15.88;;;8.80;;
51792;SDS011;37850;53.178;6.376;2023-04-15T04:01:55;16.55;;;9.93;;
51792;SDS011;37850;53.178;6.376;2023-04-15T04:04:21;15.77;;;9.88;;
51792;SDS011;37850;53.178;6.376;2023-04-15T04:06:46;14.80;;;9.18;;
51792;SDS011;37850;53.178;6.376;2023-04-15T04:09:12;17.55;;;10.05;;
51792;SDS011;37850;53.178;6.376;2023-04-15T04:11:38;19.27;;;10.10;;
51792;SDS011;37850;53.178;6.376;2023-04-15T04:14:03;16.50;;;10.15;;
51792;SDS011;37850;53.178;6.376;2023-04-15T04:16:29;19.33;;;10.45;;
51792;SDS011;37850;53.178;6.376;2023-04-15T04:18:55;18.23;;;10.35;;
51792;SDS011;37850;53.178;6.376;2023-04-15T04:21:21;16.10;;;9.55;;
51792;SDS011;37850;53.178;6.376;2023-04-15T04:23:46;17.05;;;10.30;;
51792;SDS011;37850;53.178;6.376;2023-04-15T04:26:12;16.42;;;9.52;;
51792;SDS011;37850;53.178;6.376;2023-04-15T04:28:38;18.38;;;10.27;;
51792;SDS011;37850;53.178;6.376;2023-04-15T04:31:05;15.38;;;9.40;;
51792;SDS011;37850;53.178;6.376;2023-04-15T04:33:32;16.65;;;10.15;;
51792;SDS011;37850;53.178;6.376;2023-04-15T04:35:57;15.98;;;8.70;;
51792;SDS011;37850;53.178;6.376;2023-04-15T04:38:23;17.02;;;9.98;;
51792;SDS011;37850;53.178;6.376;2023-04-15T04:40:49;16.48;;;9.68;;
51792;SDS011;37850;53.178;6.376;2023-04-15T04:43:15;18.77;;;9.73;;
51792;SDS011;37850;53.178;6.376;2023-04-15T04:45:41;19.52;;;9.38;;
51792;SDS011;37850;53.178;6.376;2023-04-15T04:48:07;17.27;;;10.02;;
51792;SDS011;37850;53.178;6.376;2023-04-15T04:50:34;16.50;;;9.68;;
51792;SDS011;37850;53.178;6.376;2023-04-15T04:53:00;13.77;;;9.45;;
51792;SDS011;37850;53.178;6.376;2023-04-15T04:55:27;16.52;;;9.48;;
51792;SDS011;37850;53.178;6.376;2023-04-15T04:57:53;15.32;;;9.05;;
51792;SDS011;37850;53.178;6.376;2023-04-15T05:00:19;17.10;;;10.13;;
51792;SDS011;37850;53.178;6.376;2023-04-15T05:02:45;15.98;;;9.05;;
51792;SDS011;37850;53.178;6.376;2023-04-15T05:05:11;15.23;;;9.38;;
51792;SDS011;37850;53.178;6.376;2023-04-15T05:07:37;16.48;;;9.95;;
51792;SDS011;37850;53.178;6.376;2023-04-15T05:10:04;16.08;;;9.88;;
51792;SDS011;37850;53.178;6.376;2023-04-15T05:12:30;17.55;;;9.13;;
51792;SDS011;37850;53.178;6.376;2023-04-15T05:14:59;16.08;;;9.50;;
51792;SDS011;37850;53.178;6.376;2023-04-15T05:17:24;17.05;;;8.60;;
51792;SDS011;37850;53.178;6.376;2023-04-15T05:19:50;16.17;;;10.00;;
51792;SDS011;37850;53.178;6.376;2023-04-15T05:22:16;16.25;;;9.98;;
51792;SDS011;37850;53.178;6.376;2023-04-15T05:24:41;16.05;;;9.15;;
51792;SDS011;37850;53.178;6.376;2023-04-15T05:27:07;15.68;;;9.05;;
51792;SDS011;37850;53.178;6.376;2023-04-15T05:29:34;15.80;;;9.40;;
51792;SDS011;37850;53.178;6.376;2023-04-15T05:32:00;15.27;;;9.32;;
51792;SDS011;37850;53.178;6.376;2023-04-15T05:34:26;16.42;;;8.63;;
51792;SDS011;37850;53.178;6.376;2023-04-15T05:36:51;14.10;;;8.80;;
51792;SDS011;37850;53.178;6.376;2023-04-15T05:39:17;14.30;;;8.55;;
51792;SDS011;37850;53.178;6.376;2023-04-15T05:41:43;13.93;;;8.68;;
51792;SDS011;37850;53.178;6.376;2023-04-15T05:44:09;16.52;;;9.43;;
51792;SDS011;37850;53.178;6.376;2023-04-15T05:46:35;14.77;;;8.63;;
51792;SDS011;37850;53.178;6.376;2023-04-15T05:49:01;15.63;;;9.00;;
51792;SDS011;37850;53.178;6.376;2023-04-15T05:51:27;17.33;;;9.55;;
51792;SDS011;37850;53.178;6.376;2023-04-15T05:53:52;15.85;;;9.73;;
51792;SDS011;37850;53.178;6.376;2023-04-15T05:56:18;15.32;;;8.98;;
51792;SDS011;37850;53.178;6.376;2023-04-15T05:58:44;17.40;;;9.65;;
51792;SDS011;37850;53.178;6.376;2023-04-15T06:01:10;14.77;;;9.32;;
51792;SDS011;37850;53.178;6.376;2023-04-15T06:03:36;17.17;;;8.80;;
51792;SDS011;37850;53.178;6.376;2023-04-15T06:06:02;17.20;;;9.45;;
51792;SDS011;37850;53.178;6.376;2023-04-15T06:08:28;15.98;;;8.73;;
51792;SDS011;37850;53.178;6.376;2023-04-15T06:10:54;14.80;;;8.90;;
51792;SDS011;37850;53.178;6.376;2023-04-15T06:13:20;15.63;;;9.70;;
51792;SDS011;37850;53.178;6.376;2023-04-15T06:15:46;17.83;;;9.23;;
51792;SDS011;37850;53.178;6.376;2023-04-15T06:18:11;16.70;;;9.70;;
51792;SDS011;37850;53.178;6.376;2023-04-15T06:20:37;16.20;;;9.18;;
51792;SDS011;37850;53.178;6.376;2023-04-15T06:23:03;18.65;;;10.57;;
51792;SDS011;37850;53.178;6.376;2023-04-15T06:25:28;20.65;;;11.00;;
51792;SDS011;37850;53.178;6.376;2023-04-15T06:27:54;16.65;;;10.38;;
51792;SDS011;37850;53.178;6.376;2023-04-15T06:30:20;18.33;;;11.35;;
51792;SDS011;37850;53.178;6.376;2023-04-15T06:32:45;21.25;;;11.65;;
51792;SDS011;37850;53.178;6.376;2023-04-15T06:35:11;18.83;;;11.55;;
51792;SDS011;37850;53.178;6.376;2023-04-15T06:37:37;15.95;;;10.18;;
51792;SDS011;37850;53.178;6.376;2023-04-15T06:40:03;15.50;;;9.95;;
51792;SDS011;37850;53.178;6.376;2023-04-15T06:42:29;17.30;;;10.40;;
51792;SDS011;37850;53.178;6.376;2023-04-15T06:44:55;19.08;;;10.98;;
51792;SDS011;37850;53.178;6.376;2023-04-15T06:47:21;21.23;;;11.60;;
51792;SDS011;37850;53.178;6.376;2023-04-15T06:49:46;19.23;;;11.65;;
51792;SDS011;37850;53.178;6.376;2023-04-15T06:52:12;22.80;;;11.63;;
51792;SDS011;37850;53.178;6.376;2023-04-15T06:54:38;20.08;;;12.52;;
51792;SDS011;37850;53.178;6.376;2023-04-15T06:57:04;21.80;;;12.50;;
51792;SDS011;37850;53.178;6.376;2023-04-15T06:59:31;19.00;;;11.45;;
51792;SDS011;37850;53.178;6.376;2023-04-15T07:01:59;22.17;;;12.25;;
51792;SDS011;37850;53.178;6.376;2023-04-15T07:04:25;19.13;;;11.38;;
51792;SDS011;37850;53.178;6.376;2023-04-15T07:06:52;20.83;;;11.70;;
51792;SDS011;37850;53.178;6.376;2023-04-15T07:09:20;16.00;;;10.00;;
51792;SDS011;37850;53.178;6.376;2023-04-15T07:11:46;15.63;;;9.25;;
51792;SDS011;37850;53.178;6.376;2023-04-15T07:14:12;16.52;;;9.40;;
51792;SDS011;37850;53.178;6.376;2023-04-15T07:16:38;17.67;;;9.98;;
51792;SDS011;37850;53.178;6.376;2023-04-15T07:19:07;16.63;;;9.35;;
51792;SDS011;37850;53.178;6.376;2023-04-15T07:21:32;16.25;;;8.27;;
51792;SDS011;37850;53.178;6.376;2023-04-15T07:23:58;14.88;;;8.93;;
51792;SDS011;37850;53.178;6.376;2023-04-15T07:26:24;17.40;;;8.75;;
51792;SDS011;37850;53.178;6.376;2023-04-15T07:28:49;12.23;;;7.55;;
51792;SDS011;37850;53.178;6.376;2023-04-15T07:31:15;14.15;;;7.78;;
51792;SDS011;37850;53.178;6.376;2023-04-15T07:33:41;13.75;;;7.45;;
51792;SDS011;37850;53.178;6.376;2023-04-15T07:36:07;12.65;;;7.07;;
51792;SDS011;37850;53.178;6.376;2023-04-15T07:38:33;12.75;;;7.03;;
51792;SDS011;37850;53.178;6.376;2023-04-15T07:40:59;14.13;;;6.82;;
51792;SDS011;37850;53.178;6.376;2023-04-15T07:43:24;12.20;;;6.80;;
51792;SDS011;37850;53.178;6.376;2023-04-15T07:45:50;12.20;;;6.93;;
51792;SDS011;37850;53.178;6.376;2023-04-15T07:48:17;17.38;;;7.30;;
51792;SDS011;37850;53.178;6.376;2023-04-15T07:50:42;13.23;;;7.20;;
51792;SDS011;37850;53.178;6.376;2023-04-15T07:53:08;13.20;;;6.00;;
51792;SDS011;37850;53.178;6.376;2023-04-15T07:55:34;12.80;;;7.20;;
51792;SDS011;37850;53.178;6.376;2023-04-15T07:57:59;11.98;;;7.13;;
51792;SDS011;37850;53.178;6.376;2023-04-15T08:00:25;15.55;;;7.28;;
51792;SDS011;37850;53.178;6.376;2023-04-15T08:02:51;16.25;;;7.20;;
51792;SDS011;37850;53.178;6.376;2023-04-15T08:05:17;14.10;;;7.03;;
51792;SDS011;37850;53.178;6.376;2023-04-15T08:07:43;15.50;;;7.57;;
51792;SDS011;37850;53.178;6.376;2023-04-15T08:10:09;14.57;;;6.45;;
51792;SDS011;37850;53.178;6.376;2023-04-15T08:12:36;13.13;;;6.50;;
51792;SDS011;37850;53.178;6.376;2023-04-15T08:15:02;11.77;;;6.13;;
51792;SDS011;37850;53.178;6.376;2023-04-15T08:17:28;13.77;;;6.10;;
51792;SDS011;37850;53.178;6.376;2023-04-15T08:19:54;12.35;;;5.55;;
51792;SDS011;37850;53.178;6.376;2023-04-15T08:22:20;11.55;;;5.57;;
51792;SDS011;37850;53.178;6.376;2023-04-15T08:24:45;14.80;;;5.75;;
51792;SDS011;37850;53.178;6.376;2023-04-15T08:27:11;13.57;;;6.15;;
51792;SDS011;37850;53.178;6.376;2023-04-15T08:29:37;11.60;;;5.38;;
51792;SDS011;37850;53.178;6.376;2023-04-15T08:32:03;14.55;;;5.95;;
51792;SDS011;37850;53.178;6.376;2023-04-15T08:34:29;13.65;;;5.45;;
51792;SDS011;37850;53.178;6.376;2023-04-15T08:36:55;11.48;;;5.28;;
51792;SDS011;37850;53.178;6.376;2023-04-15T08:39:21;10.52;;;4.80;;
51792;SDS011;37850;53.178;6.376;2023-04-15T08:44:31;10.85;;;4.70;;
51792;SDS011;37850;53.178;6.376;2023-04-15T08:47:02;8.80;;;3.70;;
51792;SDS011;37850;53.178;6.376;2023-04-15T08:49:31;8.60;;;4.22;;
51792;SDS011;37850;53.178;6.376;2023-04-15T08:51:58;9.93;;;4.05;;
51792;SDS011;37850;53.178;6.376;2023-04-15T08:54:24;9.35;;;3.67;;
51792;SDS011;37850;53.178;6.376;2023-04-15T08:56:51;7.53;;;3.28;;
51792;SDS011;37850;53.178;6.376;2023-04-15T08:59:18;9.82;;;3.83;;
51792;SDS011;37850;53.178;6.376;2023-04-15T09:01:46;7.25;;;3.63;;
51792;SDS011;37850;53.178;6.376;2023-04-15T09:04:12;8.82;;;2.92;;
51792;SDS011;37850;53.178;6.376;2023-04-15T09:06:39;9.68;;;3.50;;
51792;SDS011;37850;53.178;6.376;2023-04-15T09:09:05;9.38;;;3.80;;
51792;SDS011;37850;53.178;6.376;2023-04-15T09:11:34;7.50;;;2.97;;
51792;SDS011;37850;53.178;6.376;2023-04-15T09:14:00;10.80;;;3.20;;
51792;SDS011;37850;53.178;6.376;2023-04-15T09:16:26;9.98;;;3.50;;
51792;SDS011;37850;53.178;6.376;2023-04-15T09:18:52;9.25;;;3.28;;
51792;SDS011;37850;53.178;6.376;2023-04-15T09:21:18;8.23;;;3.47;;
51792;SDS011;37850;53.178;6.376;2023-04-15T09:26:31;9.68;;;3.70;;
51792;SDS011;37850;53.178;6.376;2023-04-15T09:29:04;11.93;;;3.05;;
51792;SDS011;37850;53.178;6.376;2023-04-15T09:31:31;10.80;;;3.08;;
51792;SDS011;37850;53.178;6.376;2023-04-15T09:33:57;6.97;;;2.70;;
51792;SDS011;37850;53.178;6.376;2023-04-15T09:36:23;8.65;;;2.30;;
51792;SDS011;37850;53.178;6.376;2023-04-15T09:38:53;9.68;;;2.10;;
51792;SDS011;37850;53.178;6.376;2023-04-15T09:41:24;5.65;;;2.00;;
51792;SDS011;37850;53.178;6.376;2023-04-15T09:43:50;9.80;;;2.33;;
51792;SDS011;37850;53.178;6.376;2023-04-15T09:46:16;6.07;;;1.63;;
51792;SDS011;37850;53.178;6.376;2023-04-15T09:48:41;4.88;;;1.70;;
51792;SDS011;37850;53.178;6.376;2023-04-15T09:51:07;4.20;;;1.40;;
51792;SDS011;37850;53.178;6.376;2023-04-15T09:53:33;4.68;;;1.40;;
51792;SDS011;37850;53.178;6.376;2023-04-15T09:56:02;4.25;;;1.55;;
51792;SDS011;37850;53.178;6.376;2023-04-15T09:58:32;3.97;;;1.38;;
51792;SDS011;37850;53.178;6.376;2023-04-15T10:00:59;5.22;;;1.40;;
51792;SDS011;37850;53.178;6.376;2023-04-15T10:05:55;5.53;;;1.30;;
51792;SDS011;37850;53.178;6.376;2023-04-15T10:08:24;4.22;;;1.30;;
51792;SDS011;37850;53.178;6.376;2023-04-15T10:10:51;3.95;;;1.33;;
51792;SDS011;37850;53.178;6.376;2023-04-15T10:13:22;7.30;;;1.80;;
51792;SDS011;37850;53.178;6.376;2023-04-15T10:15:56;5.78;;;1.60;;
51792;SDS011;37850;53.178;6.376;2023-04-15T10:18:25;5.50;;;1.38;;
51792;SDS011;37850;53.178;6.376;2023-04-15T10:20:52;4.13;;;1.77;;
51792;SDS011;37850;53.178;6.376;2023-04-15T10:23:19;4.05;;;1.45;;
51792;SDS011;37850;53.178;6.376;2023-04-15T10:25:46;5.47;;;2.08;;
51792;SDS011;37850;53.178;6.376;2023-04-15T10:28:13;5.13;;;1.60;;
51792;SDS011;37850;53.178;6.376;2023-04-15T10:30:40;18.15;;;2.45;;
51792;SDS011;37850;53.178;6.376;2023-04-15T10:33:07;6.75;;;1.98;;
51792;SDS011;37850;53.178;6.376;2023-04-15T10:35:34;5.13;;;1.25;;
51792;SDS011;37850;53.178;6.376;2023-04-15T10:38:00;3.03;;;1.50;;
51792;SDS011;37850;53.178;6.376;2023-04-15T10:40:27;7.22;;;1.88;;
51792;SDS011;37850;53.178;6.376;2023-04-15T10:42:56;5.93;;;1.60;;
51792;SDS011;37850;53.178;6.376;2023-04-15T10:45:26;5.85;;;1.60;;
51792;SDS011;37850;53.178;6.376;2023-04-15T10:47:56;8.43;;;1.77;;
51792;SDS011;37850;53.178;6.376;2023-04-15T10:50:25;4.55;;;2.08;;
51792;SDS011;37850;53.178;6.376;2023-04-15T10:52:52;6.78;;;2.00;;
51792;SDS011;37850;53.178;6.376;2023-04-15T10:55:22;5.25;;;1.60;;
51792;SDS011;37850;53.178;6.376;2023-04-15T10:57:53;5.22;;;1.50;;
51792;SDS011;37850;53.178;6.376;2023-04-15T11:00:21;6.60;;;1.73;;
51792;SDS011;37850;53.178;6.376;2023-04-15T11:05:21;6.40;;;1.63;;
51792;SDS011;37850;53.178;6.376;2023-04-15T11:08:07;8.65;;;1.80;;
51792;SDS011;37850;53.178;6.376;2023-04-15T11:13:03;7.15;;;2.25;;
51792;SDS011;37850;53.178;6.376;2023-04-15T11:15:40;6.22;;;1.90;;
51792;SDS011;37850;53.178;6.376;2023-04-15T11:18:14;5.45;;;2.00;;
51792;SDS011;37850;53.178;6.376;2023-04-15T11:20:41;9.38;;;2.25;;
51792;SDS011;37850;53.178;6.376;2023-04-15T11:23:09;5.40;;;1.73;;
51792;SDS011;37850;53.178;6.376;2023-04-15T11:25:35;7.07;;;1.90;;
51792;SDS011;37850;53.178;6.376;2023-04-15T11:28:02;8.25;;;2.20;;
51792;SDS011;37850;53.178;6.376;2023-04-15T11:30:32;10.32;;;2.30;;
51792;SDS011;37850;53.178;6.376;2023-04-15T11:35:26;5.32;;;1.40;;
51792;SDS011;37850;53.178;6.376;2023-04-15T11:37:52;7.43;;;1.60;;
51792;SDS011;37850;53.178;6.376;2023-04-15T11:40:23;10.85;;;2.10;;
51792;SDS011;37850;53.178;6.376;2023-04-15T11:45:36;6.68;;;1.77;;
51792;SDS011;37850;53.178;6.376;2023-04-15T11:48:11;9.80;;;2.33;;
51792;SDS011;37850;53.178;6.376;2023-04-15T11:50:38;6.28;;;1.70;;
51792;SDS011;37850;53.178;6.376;2023-04-15T11:53:06;7.53;;;1.52;;
51792;SDS011;37850;53.178;6.376;2023-04-15T11:58:09;9.73;;;1.80;;
51792;SDS011;37850;53.178;6.376;2023-04-15T12:00:37;6.45;;;1.30;;
51792;SDS011;37850;53.178;6.376;2023-04-15T12:03:21;8.23;;;1.50;;
51792;SDS011;37850;53.178;6.376;2023-04-15T12:16:49;11.95;;;2.22;;
51792;SDS011;37850;53.178;6.376;2023-04-15T12:22:11;10.70;;;1.67;;
51792;SDS011;37850;53.178;6.376;2023-04-15T12:24:40;8.02;;;1.85;;
51792;SDS011;37850;53.178;6.376;2023-04-15T12:27:11;8.43;;;1.48;;
51792;SDS011;37850;53.178;6.376;2023-04-15T12:29:38;10.23;;;1.50;;
51792;SDS011;37850;53.178;6.376;2023-04-15T12:32:06;10.48;;;1.40;;
51792;SDS011;37850;53.178;6.376;2023-04-15T12:34:49;7.85;;;1.17;;
51792;SDS011;37850;53.178;6.376;2023-04-15T12:37:16;5.97;;;1.50;;
51792;SDS011;37850;53.178;6.376;2023-04-15T12:39:42;10.20;;;1.75;;
51792;SDS011;37850;53.178;6.376;2023-04-15T12:42:13;11.40;;;2.13;;
51792;SDS011;37850;53.178;6.376;2023-04-15T12:44:39;7.20;;;1.20;;
51792;SDS011;37850;53.178;6.376;2023-04-15T12:47:06;8.43;;;1.10;;
51792;SDS011;37850;53.178;6.376;2023-04-15T12:49:33;9.90;;;1.40;;
51792;SDS011;37850;53.178;6.376;2023-04-15T12:51:59;14.90;;;2.28;;
51792;SDS011;37850;53.178;6.376;2023-04-15T12:54:26;15.75;;;2.15;;
51792;SDS011;37850;53.178;6.376;2023-04-15T12:56:55;12.07;;;2.00;;
51792;SDS011;37850;53.178;6.376;2023-04-15T12:59:22;7.72;;;1.60;;
51792;SDS011;37850;53.178;6.376;2023-04-15T13:01:48;8.30;;;1.58;;
51792;SDS011;37850;53.178;6.376;2023-04-15T13:04:15;10.75;;;1.75;;
51792;SDS011;37850;53.178;6.376;2023-04-15T13:06:41;5.93;;;1.30;;
51792;SDS011;37850;53.178;6.376;2023-04-15T13:09:07;9.32;;;1.20;;
51792;SDS011;37850;53.178;6.376;2023-04-15T13:11:33;12.57;;;1.30;;
51792;SDS011;37850;53.178;6.376;2023-04-15T13:14:00;9.13;;;1.30;;
51792;SDS011;37850;53.178;6.376;2023-04-15T13:16:30;13.60;;;2.47;;
51792;SDS011;37850;53.178;6.376;2023-04-15T13:18:57;12.10;;;1.63;;
51792;SDS011;37850;53.178;6.376;2023-04-15T13:21:24;9.15;;;1.40;;
51792;SDS011;37850;53.178;6.376;2023-04-15T13:23:51;11.75;;;1.75;;
51792;SDS011;37850;53.178;6.376;2023-04-15T13:26:17;7.68;;;1.98;;
51792;SDS011;37850;53.178;6.376;2023-04-15T13:28:43;14.20;;;2.00;;
51792;SDS011;37850;53.178;6.376;2023-04-15T13:31:09;10.80;;;1.95;;
51792;SDS011;37850;53.178;6.376;2023-04-15T13:33:35;10.93;;;1.92;;
51792;SDS011;37850;53.178;6.376;2023-04-15T13:36:01;13.07;;;1.90;;
51792;SDS011;37850;53.178;6.376;2023-04-15T13:38:27;10.88;;;1.60;;
51792;SDS011;37850;53.178;6.376;2023-04-15T13:40:53;12.88;;;1.73;;
51792;SDS011;37850;53.178;6.376;2023-04-15T13:43:19;16.40;;;1.65;;
51792;SDS011;37850;53.178;6.376;2023-04-15T13:45:45;10.40;;;1.70;;
51792;SDS011;37850;53.178;6.376;2023-04-15T13:48:11;8.05;;;1.33;;
51792;SDS011;37850;53.178;6.376;2023-04-15T13:50:37;11.75;;;1.98;;
51792;SDS011;37850;53.178;6.376;2023-04-15T13:53:03;17.95;;;2.00;;
51792;SDS011;37850;53.178;6.376;2023-04-15T13:55:28;12.93;;;1.65;;
51792;SDS011;37850;53.178;6.376;2023-04-15T13:57:55;8.73;;;1.95;;
51792;SDS011;37850;53.178;6.376;2023-04-15T14:00:20;11.65;;;1.52;;
51792;SDS011;37850;53.178;6.376;2023-04-15T14:02:46;11.75;;;1.77;;
51792;SDS011;37850;53.178;6.376;2023-04-15T14:05:12;10.63;;;1.80;;
51792;SDS011;37850;53.178;6.376;2023-04-15T14:07:38;10.10;;;1.85;;
51792;SDS011;37850;53.178;6.376;2023-04-15T14:10:05;13.95;;;2.33;;
51792;SDS011;37850;53.178;6.376;2023-04-15T14:12:31;7.85;;;1.85;;
51792;SDS011;37850;53.178;6.376;2023-04-15T14:14:57;8.10;;;1.60;;
51792;SDS011;37850;53.178;6.376;2023-04-15T14:17:23;9.05;;;2.33;;
51792;SDS011;37850;53.178;6.376;2023-04-15T14:19:50;9.27;;;1.75;;
51792;SDS011;37850;53.178;6.376;2023-04-15T14:22:16;9.48;;;1.85;;
51792;SDS011;37850;53.178;6.376;2023-04-15T14:24:43;15.25;;;1.95;;
51792;SDS011;37850;53.178;6.376;2023-04-15T14:27:08;12.35;;;2.05;;
51792;SDS011;37850;53.178;6.376;2023-04-15T14:29:36;11.68;;;1.90;;
51792;SDS011;37850;53.178;6.376;2023-04-15T14:32:02;12.13;;;2.47;;
51792;SDS011;37850;53.178;6.376;2023-04-15T14:34:31;10.15;;;1.75;;
51792;SDS011;37850;53.178;6.376;2023-04-15T14:36:56;13.13;;;2.63;;
51792;SDS011;37850;53.178;6.376;2023-04-15T14:39:22;10.07;;;2.10;;
51792;SDS011;37850;53.178;6.376;2023-04-15T14:41:48;11.90;;;2.88;;
51792;SDS011;37850;53.178;6.376;2023-04-15T14:44:13;12.98;;;2.92;;
51792;SDS011;37850;53.178;6.376;2023-04-15T14:46:39;12.85;;;2.15;;
51792;SDS011;37850;53.178;6.376;2023-04-15T14:49:05;10.75;;;1.70;;
51792;SDS011;37850;53.178;6.376;2023-04-15T14:51:31;15.05;;;3.28;;
51792;SDS011;37850;53.178;6.376;2023-04-15T14:53:58;10.40;;;2.05;;
51792;SDS011;37850;53.178;6.376;2023-04-15T14:56:24;18.55;;;2.40;;
51792;SDS011;37850;53.178;6.376;2023-04-15T14:58:50;19.73;;;2.88;;
51792;SDS011;37850;53.178;6.376;2023-04-15T15:01:17;12.23;;;2.30;;
51792;SDS011;37850;53.178;6.376;2023-04-15T15:03:43;14.77;;;2.42;;
51792;SDS011;37850;53.178;6.376;2023-04-15T15:06:09;17.00;;;2.75;;